createdAt,value
2022-10-31T00:01:00.165Z,102244.53
2022-10-31T00:03:27.303Z,102242.44
2022-10-31T00:05:54.143Z,102239.06
2022-10-31T00:08:20.509Z,102227.44
2022-10-31T00:10:47.181Z,102250.31
2022-10-31T00:13:15.166Z,102248.75
2022-10-31T00:15:41.985Z,102233.63
2022-10-31T00:18:10.209Z,102245.09
2022-10-31T00:20:37.018Z,102250.91
2022-10-31T00:23:04.585Z,102262.53
2022-10-31T00:25:35.634Z,102258.28
2022-10-31T00:28:02.805Z,102263.09
2022-10-31T00:30:29.303Z,102268.94
2022-10-31T00:32:55.895Z,102270.50
2022-10-31T00:35:22.461Z,102240.63
2022-10-31T00:37:48.798Z,102273.03
2022-10-31T00:40:15.229Z,102267.69
2022-10-31T00:42:42.546Z,102267.81
2022-10-31T00:45:10.737Z,102272.31
2022-10-31T00:47:37.194Z,102281.53
2022-10-31T00:50:05.271Z,102274.03
2022-10-31T00:52:31.631Z,102284.66
2022-10-31T00:54:57.985Z,102280.38
2022-10-31T00:57:24.329Z,102282.50
2022-10-31T00:59:50.673Z,102287.19
2022-10-31T01:02:17.526Z,102284.50
2022-10-31T01:04:43.971Z,102278.25
2022-10-31T01:07:12.236Z,102275.00
2022-10-31T01:09:38.604Z,102283.66
2022-10-31T01:12:05.090Z,102290.00
2022-10-31T01:14:31.443Z,102288.91
2022-10-31T01:16:57.831Z,102298.22
2022-10-31T01:19:24.198Z,102295.13
2022-10-31T01:21:50.542Z,102280.13
2022-10-31T01:24:16.902Z,102287.06
2022-10-31T01:26:43.258Z,102246.72
2022-10-31T01:29:09.891Z,102284.94
2022-10-31T01:31:39.075Z,102289.03
2022-10-31T01:34:07.490Z,102289.72
2022-10-31T01:36:36.486Z,102282.38
2022-10-31T01:39:06.041Z,102294.66
2022-10-31T01:41:35.189Z,102290.72
2022-10-31T01:44:23.475Z,102296.78
2022-10-31T01:47:06.910Z,102295.69
2022-10-31T01:49:41.315Z,102292.41
2022-10-31T01:52:17.614Z,102294.84
2022-10-31T01:54:49.450Z,102298.22
2022-10-31T01:57:16.709Z,102303.88
2022-10-31T01:59:50.475Z,102303.59
2022-10-31T02:02:19.568Z,102298.81
2022-10-31T02:04:48.368Z,102285.78
2022-10-31T02:07:19.272Z,102312.41
2022-10-31T02:09:48.427Z,102309.44
2022-10-31T02:12:16.200Z,102308.56
2022-10-31T02:14:43.105Z,102305.34
2022-10-31T02:17:09.651Z,102310.41
2022-10-31T02:19:48.849Z,102311.56
2022-10-31T02:22:25.608Z,102300.50
2022-10-31T02:25:16.337Z,102302.03
2022-10-31T02:27:57.973Z,102297.81
2022-10-31T02:30:36.437Z,102300.66
2022-10-31T02:33:17.130Z,102301.34
2022-10-31T02:35:56.583Z,102300.94
2022-10-31T02:38:44.565Z,102300.22
2022-10-31T02:41:18.304Z,102296.41
2022-10-31T02:43:57.152Z,102300.06
2022-10-31T02:46:39.703Z,102299.22
2022-10-31T02:49:19.475Z,102293.41
2022-10-31T02:51:46.310Z,102289.75
2022-10-31T02:54:24.114Z,102290.59
2022-10-31T02:56:53.786Z,102293.25
2022-10-31T02:59:20.884Z,102290.47
2022-10-31T03:01:56.077Z,102290.31
2022-10-31T03:04:33.590Z,102296.84
2022-10-31T03:07:36.759Z,102297.66
2022-10-31T03:10:13.764Z,102289.84
2022-10-31T03:12:55.978Z,102273.56
2022-10-31T03:15:34.997Z,102292.78
2022-10-31T03:18:10.309Z,102292.66
2022-10-31T03:20:49.000Z,102299.75
2022-10-31T03:23:19.304Z,102266.28
2022-10-31T03:25:47.671Z,102299.56
2022-10-31T03:30:46.866Z,102308.66
2022-10-31T03:33:19.685Z,102304.94
2022-10-31T03:35:49.246Z,102317.69
2022-10-31T03:38:15.814Z,102318.22
2022-10-31T03:40:46.763Z,102314.25
2022-10-31T03:43:18.431Z,102317.91
2022-10-31T03:45:47.554Z,102320.44
2022-10-31T03:48:15.805Z,102325.50
2022-10-31T03:50:48.186Z,102324.63
2022-10-31T03:53:23.777Z,102327.59
2022-10-31T03:56:02.004Z,102320.06
2022-10-31T03:58:40.259Z,102326.84
2022-10-31T04:01:12.472Z,102328.22
2022-10-31T04:03:39.369Z,102326.94
2022-10-31T04:06:10.642Z,102328.50
2022-10-31T04:08:46.637Z,102335.97
2022-10-31T04:11:16.131Z,102334.13
2022-10-31T04:13:45.135Z,102325.66
2022-10-31T04:16:16.949Z,102291.91
2022-10-31T04:18:44.041Z,102311.38
2022-10-31T04:21:10.387Z,102329.19
2022-10-31T04:23:37.436Z,102322.72
2022-10-31T04:26:03.989Z,102325.53
2022-10-31T04:28:30.407Z,102318.66
2022-10-31T04:30:56.846Z,102329.06
2022-10-31T04:33:23.177Z,102318.47
2022-10-31T04:35:49.552Z,102321.72
2022-10-31T04:38:16.086Z,102331.44
2022-10-31T04:40:42.492Z,102321.47
2022-10-31T04:43:08.988Z,102305.72
2022-10-31T04:45:35.387Z,102288.31
2022-10-31T04:48:02.188Z,102328.66
2022-10-31T04:50:28.890Z,102328.81
2022-10-31T04:52:55.254Z,102286.53
2022-10-31T04:55:21.615Z,102320.75
2022-10-31T04:57:50.022Z,102318.84
2022-10-31T05:00:19.055Z,102318.84
2022-10-31T05:02:46.889Z,102334.63
2022-10-31T05:05:14.385Z,102302.31
2022-10-31T05:07:45.471Z,102327.16
2022-10-31T05:10:15.590Z,102331.22
2022-10-31T05:12:48.978Z,102339.34
2022-10-31T05:15:15.843Z,102323.38
2022-10-31T05:17:42.288Z,102314.88
2022-10-31T05:20:09.154Z,102305.19
2022-10-31T05:22:35.547Z,102330.50
2022-10-31T05:25:01.935Z,102276.78
2022-10-31T05:27:28.308Z,102316.31
2022-10-31T05:29:54.728Z,102328.59
2022-10-31T05:32:21.091Z,102325.19
2022-10-31T05:34:47.443Z,102330.81
2022-10-31T05:37:13.784Z,102325.09
2022-10-31T05:39:40.118Z,102322.91
2022-10-31T05:42:06.482Z,102323.16
2022-10-31T05:44:32.842Z,102329.09
2022-10-31T05:46:59.190Z,102325.63
2022-10-31T05:49:25.554Z,102336.59
2022-10-31T05:51:51.918Z,102334.56
2022-10-31T05:54:18.289Z,102337.13
2022-10-31T05:56:44.637Z,102340.44
2022-10-31T05:59:10.969Z,102338.13
2022-10-31T06:01:37.362Z,102346.41
2022-10-31T06:04:03.883Z,102349.81
2022-10-31T06:06:30.227Z,102343.72
2022-10-31T06:08:56.636Z,102337.66
2022-10-31T06:11:23.168Z,102339.50
2022-10-31T06:13:49.546Z,102342.63
2022-10-31T06:16:15.890Z,102342.63
2022-10-31T06:18:42.250Z,102350.41
2022-10-31T06:21:08.601Z,102322.72
2022-10-31T06:23:35.107Z,102339.59
2022-10-31T06:26:01.473Z,102326.22
2022-10-31T06:28:27.811Z,102348.34
2022-10-31T06:30:54.186Z,102344.06
2022-10-31T06:33:20.563Z,102350.19
2022-10-31T06:35:47.993Z,102356.50
2022-10-31T06:38:15.319Z,102349.19
2022-10-31T06:40:41.805Z,102350.41
2022-10-31T06:43:08.154Z,102346.88
2022-10-31T06:45:35.178Z,102344.53
2022-10-31T06:48:16.744Z,102339.25
2022-10-31T06:50:44.215Z,102348.88
2022-10-31T06:55:42.935Z,102349.22
2022-10-31T06:58:11.110Z,102353.63
2022-10-31T07:00:37.890Z,102352.19
2022-10-31T07:03:07.661Z,102357.03
2022-10-31T07:05:34.423Z,102365.81
2022-10-31T07:08:04.277Z,102366.63
2022-10-31T07:10:35.705Z,102360.22
2022-10-31T07:13:10.596Z,102369.81
2022-10-31T07:15:38.754Z,102368.28
2022-10-31T07:18:07.237Z,102360.69
2022-10-31T07:20:34.101Z,102360.69
2022-10-31T07:23:01.982Z,102362.13
2022-10-31T07:25:28.771Z,102363.13
2022-10-31T07:27:55.318Z,102359.59
2022-10-31T07:30:21.767Z,102361.94
2022-10-31T07:32:49.843Z,102356.31
2022-10-31T07:35:18.947Z,102360.97
2022-10-31T07:37:45.425Z,102365.09
2022-10-31T07:40:12.567Z,102367.50
2022-10-31T07:42:46.769Z,102365.09
2022-10-31T07:45:15.403Z,102359.72
2022-10-31T07:47:49.483Z,102366.97
2022-10-31T07:50:29.909Z,102368.16
2022-10-31T07:53:08.269Z,102359.44
2022-10-31T07:55:35.260Z,102367.25
2022-10-31T07:58:11.075Z,102365.31
2022-10-31T08:00:39.186Z,102371.50
2022-10-31T08:03:17.475Z,102365.72
2022-10-31T08:05:48.204Z,102373.03
2022-10-31T08:08:15.431Z,102351.84
2022-10-31T08:10:42.292Z,102362.09
2022-10-31T08:13:14.126Z,102373.84
2022-10-31T08:15:42.559Z,102372.84
2022-10-31T08:18:15.794Z,102373.38
2022-10-31T08:20:43.601Z,102369.13
2022-10-31T08:23:11.702Z,102359.41
2022-10-31T08:25:39.315Z,102361.13
2022-10-31T08:28:07.243Z,102350.63
2022-10-31T08:30:35.361Z,102317.38
2022-10-31T08:33:09.233Z,102339.38
2022-10-31T08:35:35.591Z,102333.31
2022-10-31T08:38:02.949Z,102322.75
2022-10-31T08:40:31.340Z,102317.41
2022-10-31T08:43:02.955Z,102313.72
2022-10-31T08:45:30.887Z,102317.56
2022-10-31T08:47:59.150Z,102312.44
2022-10-31T08:50:26.146Z,102304.47
2022-10-31T08:53:04.600Z,102300.47
2022-10-31T08:55:31.932Z,102297.75
2022-10-31T08:58:00.091Z,102298.50
2022-10-31T09:00:26.848Z,102304.56
2022-10-31T09:03:00.743Z,102304.22
2022-10-31T09:05:27.779Z,102278.59
2022-10-31T09:07:59.153Z,102291.06
2022-10-31T09:10:27.010Z,102287.00
2022-10-31T09:13:01.902Z,102283.38
2022-10-31T09:15:29.587Z,102283.41
2022-10-31T09:17:55.950Z,102283.56
2022-10-31T09:20:22.433Z,102286.19
2022-10-31T09:22:49.282Z,102288.91
2022-10-31T09:25:15.676Z,102287.72
2022-10-31T09:27:42.021Z,102285.00
2022-10-31T09:30:09.190Z,102288.28
2022-10-31T09:32:35.530Z,102289.56
2022-10-31T09:35:01.967Z,102290.53
2022-10-31T09:37:28.379Z,102291.81
2022-10-31T09:39:54.739Z,102291.50
2022-10-31T09:42:36.261Z,102286.25
2022-10-31T09:45:30.155Z,102285.50
2022-10-31T09:48:27.565Z,102284.81
2022-10-31T09:51:04.131Z,102292.25
2022-10-31T09:53:55.465Z,102273.34
2022-10-31T09:56:23.761Z,102279.34
2022-10-31T09:58:59.081Z,102276.84
2022-10-31T10:01:39.389Z,102249.81
2022-10-31T10:04:36.899Z,102267.56
2022-10-31T10:07:12.662Z,102272.19
2022-10-31T10:09:39.150Z,102270.22
2022-10-31T10:12:21.195Z,102274.47
2022-10-31T10:15:12.137Z,102270.09
2022-10-31T10:18:17.008Z,102273.41
2022-10-31T10:21:04.889Z,102269.84
2022-10-31T10:23:53.064Z,102269.84
2022-10-31T10:26:22.459Z,102273.72
2022-10-31T10:29:09.585Z,102268.69
2022-10-31T10:31:43.316Z,102268.34
2022-10-31T10:34:25.474Z,102266.69
2022-10-31T10:37:05.556Z,102269.53
2022-10-31T10:39:44.305Z,102260.34
2022-10-31T10:42:35.005Z,102252.41
2022-10-31T10:45:32.791Z,102247.28
2022-10-31T10:48:10.540Z,102248.78
2022-10-31T10:50:43.080Z,102251.94
2022-10-31T10:53:35.219Z,102250.31
2022-10-31T10:56:24.312Z,102244.19
2022-10-31T10:58:50.722Z,102238.94
2022-10-31T11:01:17.138Z,102240.41
2022-10-31T11:03:43.605Z,102237.59
2022-10-31T11:06:25.782Z,102234.78
2022-10-31T11:08:53.295Z,102237.00
2022-10-31T11:11:28.890Z,102231.56
2022-10-31T11:14:04.591Z,102227.84
2022-10-31T11:16:41.383Z,102232.38
2022-10-31T11:19:15.698Z,102227.94
2022-10-31T11:21:42.125Z,102221.88
2022-10-31T11:24:11.467Z,102222.44
2022-10-31T11:26:43.718Z,102203.28
2022-10-31T11:29:18.431Z,102209.63
2022-10-31T11:31:47.466Z,102216.59
2022-10-31T11:34:30.894Z,102205.41
2022-10-31T11:37:03.871Z,102197.81
2022-10-31T11:39:30.336Z,102157.72
2022-10-31T11:42:07.708Z,102168.91
2022-10-31T11:44:35.385Z,102169.97
2022-10-31T11:47:05.857Z,102168.47
2022-10-31T11:49:44.556Z,102172.75
2022-10-31T11:52:17.079Z,102149.53
2022-10-31T11:54:49.822Z,102159.13
2022-10-31T11:57:31.104Z,102161.13
2022-10-31T12:00:04.638Z,102163.69
2022-10-31T12:02:31.542Z,102158.13
2022-10-31T12:05:07.686Z,102158.47
2022-10-31T12:07:34.147Z,102140.56
2022-10-31T12:10:00.717Z,102154.00
2022-10-31T12:12:51.500Z,102160.16
2022-10-31T12:15:29.953Z,102153.66
2022-10-31T12:18:18.134Z,102147.22
2022-10-31T12:21:15.920Z,102131.72
2022-10-31T12:24:06.303Z,102127.47
2022-10-31T12:27:04.737Z,102129.78
2022-10-31T12:29:49.322Z,102113.19
2022-10-31T12:32:30.042Z,102111.84
2022-10-31T12:35:17.020Z,102097.97
2022-10-31T12:37:54.022Z,102097.66
2022-10-31T12:40:29.251Z,102072.22
2022-10-31T12:43:24.918Z,102047.47
2022-10-31T12:45:59.734Z,102049.72
2022-10-31T12:48:47.400Z,102051.25
2022-10-31T12:51:23.098Z,102045.00
2022-10-31T12:53:58.270Z,102030.16
2022-10-31T12:56:46.569Z,102010.06
2022-10-31T12:59:32.726Z,102014.91
2022-10-31T13:02:22.388Z,102025.63
2022-10-31T13:04:55.987Z,102021.34
2022-10-31T13:07:42.070Z,102040.69
2022-10-31T13:10:19.157Z,102031.16
2022-10-31T13:12:48.890Z,102020.25
2022-10-31T13:15:35.942Z,102019.47
2022-10-31T13:18:10.827Z,101992.38
2022-10-31T13:20:45.030Z,101978.63
2022-10-31T13:23:44.636Z,101968.00
2022-10-31T13:26:13.039Z,101958.22
2022-10-31T13:29:11.723Z,101961.78
2022-10-31T13:31:41.717Z,101974.72
2022-10-31T13:34:23.605Z,101983.41
2022-10-31T13:37:00.686Z,101971.78
2022-10-31T13:39:47.669Z,101960.09
2022-10-31T13:42:37.728Z,101957.56
2022-10-31T13:45:19.661Z,101935.19
2022-10-31T13:48:16.401Z,101951.19
2022-10-31T13:50:55.296Z,101942.03
2022-10-31T13:53:23.778Z,101936.72
2022-10-31T13:56:03.358Z,101942.00
2022-10-31T13:58:31.497Z,101945.03
2022-10-31T14:01:13.127Z,101956.16
2022-10-31T14:06:50.616Z,101935.34
2022-10-31T14:09:21.427Z,101913.16
2022-10-31T14:11:49.056Z,101933.28
2022-10-31T14:14:16.333Z,101943.09
2022-10-31T14:16:45.295Z,101928.59
2022-10-31T14:19:18.840Z,101926.34
2022-10-31T14:21:49.739Z,101925.03
2022-10-31T14:24:25.176Z,101921.66
2022-10-31T14:26:54.565Z,101916.97
2022-10-31T14:29:29.973Z,101885.56
2022-10-31T14:32:01.255Z,101909.38
2022-10-31T14:34:35.836Z,101897.47
2022-10-31T14:37:33.286Z,101902.88
2022-10-31T14:40:28.709Z,101895.78
2022-10-31T14:43:23.838Z,101884.00
2022-10-31T14:46:14.701Z,101882.56
2022-10-31T14:49:05.568Z,101866.97
2022-10-31T14:51:40.376Z,101851.84
2022-10-31T14:54:12.443Z,101878.03
2022-10-31T14:56:48.445Z,101873.25
2022-10-31T14:59:19.314Z,101840.94
2022-10-31T15:02:02.578Z,101870.84
2022-10-31T15:04:33.439Z,101831.19
2022-10-31T15:07:23.265Z,101856.53
2022-10-31T15:09:59.211Z,101848.94
2022-10-31T15:12:31.421Z,101850.47
2022-10-31T15:14:59.662Z,101851.16
2022-10-31T15:17:27.511Z,101853.72
2022-10-31T15:19:54.578Z,101815.13
2022-10-31T15:22:24.313Z,101832.78
2022-10-31T15:24:57.057Z,101846.03
2022-10-31T15:27:24.761Z,101830.97
2022-10-31T15:29:55.843Z,101827.63
2022-10-31T15:32:27.550Z,101824.25
2022-10-31T15:34:56.928Z,101798.94
2022-10-31T15:37:26.374Z,101811.25
2022-10-31T15:39:53.181Z,101770.69
2022-10-31T15:42:36.392Z,101783.38
2022-10-31T15:45:14.686Z,101826.00
2022-10-31T15:47:50.152Z,101798.44
2022-10-31T15:50:24.369Z,101819.00
2022-10-31T15:52:51.232Z,101818.50
2022-10-31T15:55:20.355Z,101807.72
2022-10-31T15:57:52.068Z,101804.88
2022-10-31T16:00:39.330Z,101797.13
2022-10-31T16:03:11.050Z,101792.72
2022-10-31T16:05:49.310Z,101802.19
2022-10-31T16:08:33.014Z,101792.75
2022-10-31T16:11:08.665Z,101782.31
2022-10-31T16:13:38.860Z,101787.22
2022-10-31T16:19:02.034Z,101792.81
2022-10-31T16:21:36.119Z,101786.72
2022-10-31T16:24:20.784Z,101778.50
2022-10-31T16:26:52.661Z,101790.81
2022-10-31T16:29:28.396Z,101794.88
2022-10-31T16:31:54.891Z,101795.88
2022-10-31T16:34:26.576Z,101774.81
2022-10-31T16:36:53.602Z,101758.81
2022-10-31T16:39:20.376Z,101736.03
2022-10-31T16:41:49.349Z,101766.53
2022-10-31T16:44:23.043Z,101770.25
2022-10-31T16:47:09.135Z,101773.94
2022-10-31T16:49:35.584Z,101768.03
2022-10-31T16:52:01.932Z,101712.25
2022-10-31T16:54:29.819Z,101765.53
2022-10-31T16:56:56.277Z,101759.44
2022-10-31T16:59:22.645Z,101754.72
2022-10-31T17:01:50.027Z,101742.13
2022-10-31T17:04:16.667Z,101759.47
2022-10-31T17:06:43.204Z,101738.06
2022-10-31T17:09:09.994Z,101749.00
2022-10-31T17:11:36.987Z,101744.63
2022-10-31T17:14:04.698Z,101740.22
2022-10-31T17:16:31.041Z,101738.22
2022-10-31T17:18:57.430Z,101721.31
2022-10-31T17:21:25.441Z,101726.03
2022-10-31T17:23:52.121Z,101721.47
2022-10-31T17:26:18.890Z,101717.28
2022-10-31T17:28:45.282Z,101721.69
2022-10-31T17:31:21.227Z,101678.69
2022-10-31T17:33:47.618Z,101707.13
2022-10-31T17:36:13.970Z,101698.03
2022-10-31T17:38:40.486Z,101686.91
2022-10-31T17:41:11.055Z,101692.28
2022-10-31T17:43:38.216Z,101694.00
2022-10-31T17:46:04.835Z,101684.53
2022-10-31T17:48:31.361Z,101678.75
2022-10-31T17:51:01.093Z,101664.63
2022-10-31T17:53:32.027Z,101667.94
2022-10-31T17:56:09.425Z,101660.03
2022-10-31T17:58:37.235Z,101657.47
2022-10-31T18:01:11.889Z,101660.19
2022-10-31T18:03:39.204Z,101658.50
2022-10-31T18:06:06.351Z,101649.00
2022-10-31T18:08:35.281Z,101643.44
2022-10-31T18:11:09.410Z,101635.88
2022-10-31T18:13:36.277Z,101643.97
2022-10-31T18:16:06.424Z,101643.63
2022-10-31T18:18:32.790Z,101631.13
2022-10-31T18:20:59.130Z,101620.69
2022-10-31T18:23:25.606Z,101624.03
2022-10-31T18:25:51.964Z,101628.25
2022-10-31T18:28:18.309Z,101624.16
2022-10-31T18:30:44.655Z,101613.38
2022-10-31T18:33:11.306Z,101607.13
2022-10-31T18:35:38.687Z,101613.88
2022-10-31T18:38:06.772Z,101607.97
2022-10-31T18:40:35.309Z,101604.41
2022-10-31T18:43:03.048Z,101601.38
2022-10-31T18:45:45.380Z,101580.47
2022-10-31T18:48:14.371Z,101588.53
2022-10-31T18:50:41.751Z,101579.59
2022-10-31T18:53:08.176Z,101572.81
2022-10-31T18:55:38.480Z,101575.34
2022-10-31T18:58:04.813Z,101560.69
2022-10-31T19:00:31.154Z,101547.34
2022-10-31T19:02:57.592Z,101548.53
2022-10-31T19:05:24.180Z,101551.06
2022-10-31T19:07:50.541Z,101551.06
2022-10-31T19:10:16.999Z,101550.22
2022-10-31T19:12:43.337Z,101539.59
2022-10-31T19:15:10.095Z,101537.88
2022-10-31T19:17:36.447Z,101538.22
2022-10-31T19:20:02.866Z,101534.19
2022-10-31T19:22:31.144Z,101535.22
2022-10-31T19:24:57.522Z,101522.75
2022-10-31T19:27:26.351Z,101517.34
2022-10-31T19:29:54.841Z,101516.50
2022-10-31T19:32:21.211Z,101501.59
2022-10-31T19:34:47.589Z,101515.53
2022-10-31T19:37:14.130Z,101504.56
2022-10-31T19:39:44.129Z,101499.34
2022-10-31T19:42:11.082Z,101501.00
2022-10-31T19:44:37.498Z,101494.28
2022-10-31T19:47:03.892Z,101493.66
2022-10-31T19:49:30.271Z,101485.78
2022-10-31T19:51:56.694Z,101467.63
2022-10-31T19:54:23.418Z,101481.50
2022-10-31T19:56:49.826Z,101479.66
2022-10-31T19:59:16.166Z,101484.22
2022-10-31T20:01:42.596Z,101483.84
2022-10-31T20:04:09.259Z,101474.41
2022-10-31T20:06:38.586Z,101464.63
2022-10-31T20:09:09.799Z,101464.28
2022-10-31T20:11:37.772Z,101460.53
2022-10-31T20:14:04.677Z,101454.06
2022-10-31T20:16:32.406Z,101455.03
2022-10-31T20:18:59.751Z,101452.25
2022-10-31T20:21:28.847Z,101448.38
2022-10-31T20:24:03.465Z,101443.19
2022-10-31T20:26:31.312Z,101442.28
2022-10-31T20:28:58.912Z,101424.41
2022-10-31T20:31:28.592Z,101416.13
2022-10-31T20:33:55.716Z,101423.09
2022-10-31T20:36:23.282Z,101406.50
2022-10-31T20:38:51.406Z,101411.28
2022-10-31T20:41:18.184Z,101407.06
2022-10-31T20:43:45.240Z,101407.44
2022-10-31T20:46:20.425Z,101400.19
2022-10-31T20:48:47.609Z,101400.19
2022-10-31T20:51:22.662Z,101406.66
2022-10-31T20:53:51.093Z,101400.22
2022-10-31T20:56:22.909Z,101408.63
2022-10-31T20:58:50.181Z,101369.63
2022-10-31T21:01:22.312Z,101385.78
2022-10-31T21:03:49.766Z,101400.97
2022-10-31T21:06:17.253Z,101406.53
2022-10-31T21:08:44.239Z,101388.66
2022-10-31T21:11:17.064Z,101394.53
2022-10-31T21:13:45.338Z,101399.94
2022-10-31T21:16:14.865Z,101390.09
2022-10-31T21:18:42.819Z,101383.38
2022-10-31T21:21:11.720Z,101388.41
2022-10-31T21:23:38.990Z,101366.81
2022-10-31T21:26:08.528Z,101388.13
2022-10-31T21:28:35.626Z,101382.06
2022-10-31T21:31:06.289Z,101375.47
2022-10-31T21:33:32.810Z,101373.66
2022-10-31T21:35:59.266Z,101373.00
2022-10-31T21:38:25.666Z,101384.69
2022-10-31T21:41:01.082Z,101380.50
2022-10-31T21:43:28.365Z,101365.88
2022-10-31T21:45:54.762Z,101355.31
2022-10-31T21:48:21.251Z,101378.88
2022-10-31T21:50:47.607Z,101356.13
2022-10-31T21:53:32.282Z,101367.19
2022-10-31T21:56:07.926Z,101371.75
2022-10-31T21:58:36.325Z,101360.81
2022-10-31T22:01:05.315Z,101355.44
2022-10-31T22:03:37.725Z,101366.38
2022-10-31T22:06:05.789Z,101326.50
2022-10-31T22:08:32.223Z,101358.28
2022-10-31T22:11:06.827Z,101339.28
2022-10-31T22:13:34.227Z,101312.00
2022-10-31T22:16:06.281Z,101337.72
2022-10-31T22:18:32.919Z,101332.16
2022-10-31T22:21:10.197Z,101328.91
2022-10-31T22:23:37.122Z,101321.94
2022-10-31T22:26:05.737Z,101306.56
2022-10-31T22:28:33.370Z,101318.97
2022-10-31T22:31:05.094Z,101287.03
2022-10-31T22:33:31.791Z,101304.31
2022-10-31T22:36:03.069Z,101293.38
2022-10-31T22:38:31.007Z,101287.28
2022-10-31T22:40:58.538Z,101301.31
2022-10-31T22:43:25.437Z,101293.31
2022-10-31T22:46:03.626Z,101295.34
2022-10-31T22:48:31.788Z,101290.28
2022-10-31T22:51:05.618Z,101294.03
2022-10-31T22:53:34.142Z,101295.94
2022-10-31T22:56:00.584Z,101287.84
2022-10-31T22:58:29.436Z,101290.19
2022-10-31T23:00:56.104Z,101281.44
2022-10-31T23:03:23.085Z,101276.22
2022-10-31T23:06:01.995Z,101274.91
2022-10-31T23:08:29.619Z,101266.31
2022-10-31T23:10:56.134Z,101269.19
2022-10-31T23:13:41.525Z,101234.09
2022-10-31T23:16:09.835Z,101261.09
2022-10-31T23:18:49.511Z,101253.50
2022-10-31T23:21:37.310Z,101261.94
2022-10-31T23:24:04.191Z,101257.22
2022-10-31T23:26:48.968Z,101250.13
2022-10-31T23:29:15.299Z,101241.03
2022-10-31T23:31:41.702Z,101232.38
2022-10-31T23:34:08.087Z,101234.44
2022-10-31T23:36:34.449Z,101236.47
2022-10-31T23:39:00.799Z,101229.38
2022-10-31T23:41:27.177Z,101220.78
2022-10-31T23:43:53.550Z,101221.78
2022-10-31T23:46:19.886Z,101224.28
2022-10-31T23:48:49.245Z,101219.94
2022-10-31T23:51:15.734Z,101211.50
2022-10-31T23:53:45.925Z,101208.72
2022-10-31T23:56:13.180Z,101207.69
2022-10-31T23:58:40.159Z,101214.16
